Time;durP1;ratioP1;P1;durP2;ratioP2;P2;SDS_P1;SDS_P2;PMS_P1;PMS_P2;Temp;Humidity;BMP_temperature;BMP_pressure;BME280_temperature;BME280_humidity;BME280_pressure;Samples;Min_cycle;Max_cycle;Signal;HPM_P1;HPM_P2
2024/04/07 00:00:23;;;;;;;2.97;2.20;;;;;;;;;;5109538;28;20511;-56
2024/04/07 00:02:50;;;;;;;2.67;2.23;;;;;;;;;;5109849;28;20175;-56
2024/04/07 00:05:16;;;;;;;4.57;2.40;;;;;;;;;;5109938;28;20270;-56
2024/04/07 00:07:42;;;;;;;2.40;2.20;;;;;;;;;;5109970;28;20177;-57
2024/04/07 00:10:09;;;;;;;2.80;2.50;;;;;;;;;;5109346;28;20659;-56
2024/04/07 00:12:35;;;;;;;3.77;2.30;;;;;;;;;;5109727;28;20191;-56
2024/04/07 00:15:01;;;;;;;6.93;3.00;;;;;;;;;;5109673;28;20186;-56
2024/04/07 00:17:27;;;;;;;2.57;2.10;;;;;;;;;;5111239;28;20198;-56
2024/04/07 00:19:54;;;;;;;3.07;2.10;;;;;;;;;;5113838;28;20257;-56
2024/04/07 00:22:20;;;;;;;4.60;2.43;;;;;;;;;;5113736;28;20175;-56
2024/04/07 00:24:46;;;;;;;3.47;2.30;;;;;;;;;;5113433;28;20175;-56
2024/04/07 00:27:12;;;;;;;3.27;2.03;;;;;;;;;;5114146;28;20220;-57
2024/04/07 00:29:38;;;;;;;3.87;2.30;;;;;;;;;;5113678;28;20622;-56
2024/04/07 00:32:04;;;;;;;2.70;1.90;;;;;;;;;;5114016;28;20155;-56
2024/04/07 00:34:30;;;;;;;4.13;2.17;;;;;;;;;;5113607;28;20160;-54
2024/04/07 00:36:56;;;;;;;4.93;2.33;;;;;;;;;;5103117;28;20179;-54
2024/04/07 00:39:22;;;;;;;2.13;1.80;;;;;;;;;;5093028;28;20172;-54
2024/04/07 00:41:48;;;;;;;2.40;2.20;;;;;;;;;;5093315;28;20161;-54
2024/04/07 00:44:14;;;;;;;2.97;2.50;;;;;;;;;;5093245;28;20161;-54
2024/04/07 00:46:41;;;;;;;4.03;2.10;;;;;;;;;;5093194;28;20179;-54
2024/04/07 00:49:08;;;;;;;2.77;2.30;;;;;;;;;;5093203;28;20237;-55
2024/04/07 00:51:34;;;;;;;4.57;2.20;;;;;;;;;;5093059;28;20165;-55
2024/04/07 00:54:01;;;;;;;3.47;2.73;;;;;;;;;;5092807;28;20188;-55
2024/04/07 00:56:27;;;;;;;3.00;2.40;;;;;;;;;;5093346;28;20565;-55
2024/04/07 00:58:53;;;;;;;5.50;2.30;;;;;;;;;;5092388;28;20191;-55
2024/04/07 01:01:19;;;;;;;3.43;2.10;;;;;;;;;;5093086;28;20157;-55
2024/04/07 01:03:45;;;;;;;3.83;2.33;;;;;;;;;;5092757;28;20171;-55
2024/04/07 01:06:11;;;;;;;4.57;2.40;;;;;;;;;;5092619;28;20175;-55
2024/04/07 01:08:38;;;;;;;3.03;2.50;;;;;;;;;;5092604;28;20168;-55
2024/04/07 01:11:04;;;;;;;3.67;2.27;;;;;;;;;;5092999;28;20160;-55
2024/04/07 01:13:30;;;;;;;3.07;2.27;;;;;;;;;;5092001;28;20186;-55
2024/04/07 01:15:56;;;;;;;2.80;2.13;;;;;;;;;;5092747;28;20631;-55
2024/04/07 01:18:22;;;;;;;3.07;2.20;;;;;;;;;;5092392;28;20287;-55
2024/04/07 01:20:48;;;;;;;12.03;2.80;;;;;;;;;;5092355;28;20253;-55
2024/04/07 01:23:17;;;;;;;6.70;2.40;;;;;;;;;;5092069;28;20336;-54
2024/04/07 01:25:44;;;;;;;4.17;2.43;;;;;;;;;;5092538;28;20609;-55
2024/04/07 01:28:11;;;;;;;5.00;2.43;;;;;;;;;;5092551;28;20530;-55
2024/04/07 01:30:37;;;;;;;4.30;2.43;;;;;;;;;;5092019;28;20175;-54
2024/04/07 01:33:03;;;;;;;4.70;2.90;;;;;;;;;;5092266;28;20254;-57
2024/04/07 01:35:30;;;;;;;3.33;2.10;;;;;;;;;;5073782;28;20524;-56
2024/04/07 01:37:56;;;;;;;8.47;3.27;;;;;;;;;;5110633;28;20190;-55
2024/04/07 01:40:22;;;;;;;3.60;2.40;;;;;;;;;;5112943;28;20635;-54
2024/04/07 01:42:50;;;;;;;6.23;3.60;;;;;;;;;;5113234;28;20175;-55
2024/04/07 01:45:18;;;;;;;31.60;5.13;;;;;;;;;;5112371;28;20243;-52
2024/04/07 01:47:44;;;;;;;64.30;5.90;;;;;;;;;;5112847;28;20164;-57
2024/04/07 01:50:10;;;;;;;6.00;1.90;;;;;;;;;;5111776;28;20205;-55
2024/04/07 01:52:37;;;;;;;6.43;1.80;;;;;;;;;;5133070;27;20194;-53
2024/04/07 01:55:03;;;;;;;4.27;2.43;;;;;;;;;;5132325;27;20638;-53
2024/04/07 01:57:29;;;;;;;7.83;2.00;;;;;;;;;;5133039;27;20159;-53
2024/04/07 01:59:55;;;;;;;6.40;2.30;;;;;;;;;;5132313;27;20163;-53
2024/04/07 02:02:21;;;;;;;4.90;2.67;;;;;;;;;;5132797;27;20172;-53
2024/04/07 02:04:47;;;;;;;4.57;1.90;;;;;;;;;;5132665;27;20530;-53
2024/04/07 02:07:14;;;;;;;6.32;2.17;;;;;;;;;;5112505;27;20505;-53
2024/04/07 02:09:40;;;;;;;1.83;1.70;;;;;;;;;;5131824;27;20186;-53
2024/04/07 02:12:07;;;;;;;3.70;2.07;;;;;;;;;;5132734;27;20159;-53
2024/04/07 02:14:33;;;;;;;4.33;1.93;;;;;;;;;;5131649;27;20171;-53
2024/04/07 02:16:59;;;;;;;3.53;2.00;;;;;;;;;;5132059;27;20198;-53
2024/04/07 02:19:25;;;;;;;5.57;2.13;;;;;;;;;;5132729;27;20621;-53
2024/04/07 02:21:51;;;;;;;5.03;2.27;;;;;;;;;;5132023;27;20167;-53
2024/04/07 02:24:17;;;;;;;4.80;2.27;;;;;;;;;;5131430;27;20808;-53
2024/04/07 02:26:46;;;;;;;3.20;2.00;;;;;;;;;;5132216;27;20163;-53
2024/04/07 02:29:12;;;;;;;4.43;1.97;;;;;;;;;;5131733;27;20226;-53
2024/04/07 02:31:38;;;;;;;2.93;2.23;;;;;;;;;;5132163;27;20162;-53
2024/04/07 02:34:04;;;;;;;5.63;2.20;;;;;;;;;;5132014;27;20338;-53
2024/04/07 02:36:31;;;;;;;6.83;2.33;;;;;;;;;;5118874;27;20180;-53
2024/04/07 02:38:57;;;;;;;4.37;2.30;;;;;;;;;;5090807;28;20180;-53
2024/04/07 02:41:23;;;;;;;2.80;1.80;;;;;;;;;;5090641;28;20572;-52
2024/04/07 02:43:49;;;;;;;4.27;2.20;;;;;;;;;;5090529;28;20172;-52
2024/04/07 02:49:10;;;;;;;4.80;2.10;;;;;;;;;;5070665;28;20237;-53
2024/04/07 02:51:36;;;;;;;3.60;2.73;;;;;;;;;;5090345;28;20258;-53
2024/04/07 02:54:03;;;;;;;3.37;2.00;;;;;;;;;;5090487;28;20188;-53
2024/04/07 02:56:29;;;;;;;4.13;2.40;;;;;;;;;;5090812;28;20564;-53
2024/04/07 02:58:55;;;;;;;5.03;2.20;;;;;;;;;;5090294;28;20577;-53
2024/04/07 03:01:21;;;;;;;6.10;2.23;;;;;;;;;;5090490;28;20179;-52
2024/04/07 03:03:48;;;;;;;5.17;2.37;;;;;;;;;;5090585;28;20167;-52
2024/04/07 03:06:14;;;;;;;6.10;2.47;;;;;;;;;;5090245;28;20822;-53
2024/04/07 03:08:40;;;;;;;3.87;1.83;;;;;;;;;;5090253;28;20716;-53
2024/04/07 03:11:07;;;;;;;3.90;2.27;;;;;;;;;;5090453;28;20202;-53
2024/04/07 03:13:34;;;;;;;4.70;2.30;;;;;;;;;;5089868;28;20756;-53
2024/04/07 03:16:00;;;;;;;4.77;2.07;;;;;;;;;;5090221;28;20272;-54
2024/04/07 03:18:26;;;;;;;5.63;2.50;;;;;;;;;;5090614;28;20558;-52
2024/04/07 03:20:52;;;;;;;3.90;2.63;;;;;;;;;;5089942;28;20177;-53
2024/04/07 03:23:18;;;;;;;5.40;2.60;;;;;;;;;;5090026;28;20229;-52
2024/04/07 03:25:45;;;;;;;5.13;2.30;;;;;;;;;;5089965;28;20175;-53
2024/04/07 03:28:11;;;;;;;2.43;2.10;;;;;;;;;;5090444;28;20182;-53
2024/04/07 03:30:37;;;;;;;4.30;2.30;;;;;;;;;;5089901;28;20183;-53
2024/04/07 03:33:03;;;;;;;3.83;2.10;;;;;;;;;;5090263;28;20199;-53
2024/04/07 03:35:29;;;;;;;5.77;2.70;;;;;;;;;;5089888;28;20505;-53
2024/04/07 03:37:56;;;;;;;6.03;3.20;;;;;;;;;;5107884;28;20189;-53
2024/04/07 03:40:22;;;;;;;4.67;2.20;;;;;;;;;;5110513;28;20257;-53
2024/04/07 03:42:49;;;;;;;5.83;2.37;;;;;;;;;;5110684;28;20229;-53
2024/04/07 03:45:15;;;;;;;4.70;1.93;;;;;;;;;;5109564;28;20264;-53
2024/04/07 03:47:41;;;;;;;5.73;2.53;;;;;;;;;;5110391;28;20168;-52
2024/04/07 03:50:08;;;;;;;6.77;2.13;;;;;;;;;;5110098;28;20168;-53
2024/04/07 03:52:34;;;;;;;5.10;2.53;;;;;;;;;;5109341;28;20188;-53
2024/04/07 03:55:00;;;;;;;8.67;2.53;;;;;;;;;;5109972;28;20163;-53
2024/04/07 03:57:26;;;;;;;5.50;2.27;;;;;;;;;;5110070;28;20173;-53
2024/04/07 03:59:52;;;;;;;5.53;2.07;;;;;;;;;;5109903;28;20536;-53
2024/04/07 04:02:36;;;;;;;3.10;2.20;;;;;;;;;;5110038;28;20254;-52
2024/04/07 04:05:03;;;;;;;3.30;2.43;;;;;;;;;;5110118;28;20169;-53
2024/04/07 04:07:30;;;;;;;3.37;2.17;;;;;;;;;;5110426;28;20161;-53
2024/04/07 04:09:56;;;;;;;5.67;2.63;;;;;;;;;;5109657;28;20169;-54
2024/04/07 04:12:23;;;;;;;3.90;2.50;;;;;;;;;;5109728;28;20280;-55
2024/04/07 04:14:50;;;;;;;4.23;2.17;;;;;;;;;;5109758;28;20512;-55
2024/04/07 04:17:16;;;;;;;8.10;2.47;;;;;;;;;;5109773;28;20208;-55
2024/04/07 04:19:42;;;;;;;3.13;2.13;;;;;;;;;;5109987;28;20471;-54
2024/04/07 04:22:08;;;;;;;5.17;2.50;;;;;;;;;;5109496;28;20530;-54
2024/04/07 04:24:35;;;;;;;4.77;2.13;;;;;;;;;;5109370;28;20185;-54
2024/04/07 04:27:02;;;;;;;3.83;2.40;;;;;;;;;;5110069;28;20169;-55
2024/04/07 04:29:28;;;;;;;5.47;2.00;;;;;;;;;;5109644;28;20652;-54
2024/04/07 04:31:56;;;;;;;2.57;2.17;;;;;;;;;;5109632;28;20223;-54
2024/04/07 04:34:22;;;;;;;5.33;2.47;;;;;;;;;;5109517;28;20202;-55
2024/04/07 04:36:49;;;;;;;4.13;2.63;;;;;;;;;;5100092;28;20171;-54
2024/04/07 04:39:15;;;;;;;2.80;2.10;;;;;;;;;;5088944;28;20154;-54
2024/04/07 04:41:46;;;;;;;3.27;2.07;;;;;;;;;;5089047;28;20242;-54
2024/04/07 04:44:15;;;;;;;6.20;2.20;;;;;;;;;;5088848;28;20187;-54
2024/04/07 04:46:42;;;;;;;4.60;2.27;;;;;;;;;;5089096;28;20213;-54
2024/04/07 04:49:11;;;;;;;2.87;2.17;;;;;;;;;;5089525;28;20601;-55
2024/04/07 04:51:37;;;;;;;4.00;1.97;;;;;;;;;;5088749;28;20165;-54
2024/04/07 04:54:04;;;;;;;4.00;2.50;;;;;;;;;;5088955;28;20654;-54
2024/04/07 04:56:30;;;;;;;4.00;2.10;;;;;;;;;;5089572;28;20170;-55
2024/04/07 04:58:59;;;;;;;2.70;2.30;;;;;;;;;;5088554;28;20181;-55
2024/04/07 05:01:26;;;;;;;4.63;2.10;;;;;;;;;;5089017;28;20172;-54
2024/04/07 05:03:52;;;;;;;8.23;2.17;;;;;;;;;;5091256;28;20168;-54
2024/04/07 05:06:19;;;;;;;7.30;2.40;;;;;;;;;;5092119;28;20264;-54
2024/04/07 05:08:45;;;;;;;3.73;2.07;;;;;;;;;;5092142;28;20184;-56
2024/04/07 05:11:12;;;;;;;4.70;1.97;;;;;;;;;;5092931;28;20187;-54
2024/04/07 05:13:38;;;;;;;4.27;2.00;;;;;;;;;;5092081;28;20640;-54
2024/04/07 05:16:04;;;;;;;6.43;1.87;;;;;;;;;;5092189;28;20188;-54
2024/04/07 05:18:30;;;;;;;4.73;2.03;;;;;;;;;;5092146;28;20200;-54
2024/04/07 05:20:57;;;;;;;3.77;1.60;;;;;;;;;;5092183;28;20159;-52
2024/04/07 05:23:24;;;;;;;2.47;1.93;;;;;;;;;;5091862;28;20239;-52
2024/04/07 05:25:50;;;;;;;4.20;2.00;;;;;;;;;;5092568;28;20181;-52
2024/04/07 05:28:16;;;;;;;4.53;1.97;;;;;;;;;;5092504;28;20196;-54
2024/04/07 05:30:42;;;;;;;3.40;1.90;;;;;;;;;;5092076;28;20548;-54
2024/04/07 05:33:08;;;;;;;4.03;1.70;;;;;;;;;;5092482;28;20651;-52
2024/04/07 05:35:34;;;;;;;2.70;1.47;;;;;;;;;;5091613;28;20152;-52
2024/04/07 05:38:01;;;;;;;3.43;2.13;;;;;;;;;;5091604;28;20180;-52
2024/04/07 05:40:27;;;;;;;2.27;1.70;;;;;;;;;;5092157;28;20173;-53
2024/04/07 05:42:53;;;;;;;3.37;1.70;;;;;;;;;;5091954;28;20182;-53
2024/04/07 05:45:20;;;;;;;3.47;1.83;;;;;;;;;;5091636;28;20189;-52
2024/04/07 05:47:49;;;;;;;4.40;2.10;;;;;;;;;;5092013;28;20165;-52
2024/04/07 05:50:16;;;;;;;1.83;1.63;;;;;;;;;;5091272;28;20176;-53
2024/04/07 05:52:42;;;;;;;3.47;1.47;;;;;;;;;;5092020;28;20708;-52
2024/04/07 05:55:09;;;;;;;3.10;1.93;;;;;;;;;;5091430;28;20168;-52
2024/04/07 05:57:36;;;;;;;3.27;1.97;;;;;;;;;;5091480;28;20161;-52
2024/04/07 06:00:03;;;;;;;2.67;1.80;;;;;;;;;;5091461;28;20152;-53
2024/04/07 06:02:29;;;;;;;3.43;1.83;;;;;;;;;;5091891;28;20178;-52
2024/04/07 06:04:55;;;;;;;4.65;2.20;;;;;;;;;;5090539;28;20416;-52
2024/04/07 06:07:21;;;;;;;5.50;2.17;;;;;;;;;;5091438;28;20635;-52
2024/04/07 06:09:50;;;;;;;6.03;2.10;;;;;;;;;;5091200;28;20209;-52
2024/04/07 06:12:16;;;;;;;2.90;2.03;;;;;;;;;;5091315;28;20170;-52
2024/04/07 06:14:43;;;;;;;3.33;1.70;;;;;;;;;;5090074;28;20276;-53
2024/04/07 06:17:09;;;;;;;3.43;1.60;;;;;;;;;;5091521;28;20521;-53
2024/04/07 06:19:36;;;;;;;3.53;1.87;;;;;;;;;;5091225;28;20166;-52
2024/04/07 06:22:02;;;;;;;4.17;1.97;;;;;;;;;;5091190;28;20156;-52
2024/04/07 06:24:28;;;;;;;3.27;1.57;;;;;;;;;;5090558;28;20639;-53
2024/04/07 06:26:54;;;;;;;3.97;1.80;;;;;;;;;;5091079;28;20175;-53
2024/04/07 06:29:20;;;;;;;2.87;1.80;;;;;;;;;;5090875;28;20170;-53
2024/04/07 06:31:46;;;;;;;2.80;2.07;;;;;;;;;;5091431;28;20618;-53
2024/04/07 06:34:12;;;;;;;2.47;2.03;;;;;;;;;;5091282;28;20667;-53
2024/04/07 06:36:38;;;;;;;2.87;1.80;;;;;;;;;;5098119;28;20642;-53
2024/04/07 06:39:04;;;;;;;2.30;1.73;;;;;;;;;;5110779;28;20229;-53
2024/04/07 06:41:30;;;;;;;5.03;1.70;;;;;;;;;;5111587;28;20163;-53
2024/04/07 06:43:56;;;;;;;4.97;1.60;;;;;;;;;;5110912;28;20171;-53
2024/04/07 06:46:22;;;;;;;2.00;1.63;;;;;;;;;;5111443;28;20185;-53
2024/04/07 06:48:48;;;;;;;5.50;2.10;;;;;;;;;;5110967;28;20163;-53
2024/04/07 06:51:14;;;;;;;1.97;1.70;;;;;;;;;;5110735;28;20169;-53
2024/04/07 06:53:40;;;;;;;2.07;1.70;;;;;;;;;;5110228;28;20195;-53
2024/04/07 06:56:07;;;;;;;3.77;1.70;;;;;;;;;;5111058;28;20178;-53
2024/04/07 06:58:33;;;;;;;3.10;2.00;;;;;;;;;;5110456;28;20721;-53
2024/04/07 07:01:00;;;;;;;2.13;1.50;;;;;;;;;;5110742;28;20198;-53
2024/04/07 07:03:26;;;;;;;3.67;2.03;;;;;;;;;;5110966;28;20633;-53
2024/04/07 07:05:52;;;;;;;2.10;1.70;;;;;;;;;;5110266;28;20246;-53
2024/04/07 07:08:18;;;;;;;4.93;2.17;;;;;;;;;;5110667;28;20673;-53
2024/04/07 07:10:58;;;;;;;7.07;1.93;;;;;;;;;;5110944;28;20164;-53
2024/04/07 07:13:24;;;;;;;3.70;2.00;;;;;;;;;;5110219;28;20251;-53
2024/04/07 07:15:50;;;;;;;3.37;1.60;;;;;;;;;;5111069;28;20622;-53
2024/04/07 07:18:16;;;;;;;4.97;1.80;;;;;;;;;;5110828;28;20677;-53
2024/04/07 07:20:42;;;;;;;5.10;1.50;;;;;;;;;;5110069;28;20160;-53
2024/04/07 07:23:08;;;;;;;4.73;1.73;;;;;;;;;;5110273;28;20219;-53
2024/04/07 07:25:34;;;;;;;1.70;1.50;;;;;;;;;;5110498;28;20513;-53
2024/04/07 07:28:00;;;;;;;3.83;1.63;;;;;;;;;;5110575;28;20164;-53
2024/04/07 07:30:26;;;;;;;3.27;1.70;;;;;;;;;;5110112;28;20240;-53
2024/04/07 07:32:53;;;;;;;2.73;1.93;;;;;;;;;;5110329;28;20203;-53
2024/04/07 07:35:19;;;;;;;4.60;2.13;;;;;;;;;;5110221;28;20206;-55
2024/04/07 07:37:45;;;;;;;4.50;1.70;;;;;;;;;;5093624;28;20172;-54
2024/04/07 07:40:11;;;;;;;3.43;2.17;;;;;;;;;;5089405;28;20167;-54
2024/04/07 07:42:37;;;;;;;2.50;2.07;;;;;;;;;;5089888;28;20175;-56
2024/04/07 07:45:04;;;;;;;2.77;2.23;;;;;;;;;;5089594;28;20168;-56
2024/04/07 07:47:30;;;;;;;4.53;1.80;;;;;;;;;;5089814;28;20174;-56
2024/04/07 07:49:57;;;;;;;4.70;1.90;;;;;;;;;;5089810;28;20177;-56
2024/04/07 07:52:23;;;;;;;3.30;1.83;;;;;;;;;;5089654;28;20168;-56
2024/04/07 07:54:52;;;;;;;5.93;1.83;;;;;;;;;;5089451;28;20164;-56
2024/04/07 07:57:18;;;;;;;4.13;2.00;;;;;;;;;;5089957;28;20647;-56
2024/04/07 07:59:45;;;;;;;2.23;1.53;;;;;;;;;;5089279;28;20633;-56
2024/04/07 08:02:11;;;;;;;3.80;1.73;;;;;;;;;;5089476;28;20529;-56
2024/04/07 08:04:37;;;;;;;3.00;1.40;;;;;;;;;;5089642;28;20211;-56
2024/04/07 08:07:04;;;;;;;4.73;2.10;;;;;;;;;;5089283;28;20197;-58
2024/04/07 08:09:29;;;;;;;4.70;1.70;;;;;;;;;;5089389;28;20165;-56
2024/04/07 08:11:56;;;;;;;3.43;1.60;;;;;;;;;;5089769;28;20194;-58
2024/04/07 08:14:22;;;;;;;3.83;2.37;;;;;;;;;;5088799;28;20216;-56
2024/04/07 08:16:48;;;;;;;2.87;1.80;;;;;;;;;;5089631;28;20196;-56
2024/04/07 08:19:15;;;;;;;3.07;1.40;;;;;;;;;;5089063;28;20274;-56
2024/04/07 08:21:41;;;;;;;4.87;2.00;;;;;;;;;;5088924;28;20561;-56
2024/04/07 08:24:07;;;;;;;2.20;1.53;;;;;;;;;;5088853;28;20694;-56
2024/04/07 08:26:33;;;;;;;3.83;2.10;;;;;;;;;;5089188;28;20212;-56
2024/04/07 08:29:00;;;;;;;3.37;1.70;;;;;;;;;;5088640;28;20176;-56
2024/04/07 08:31:26;;;;;;;4.27;1.97;;;;;;;;;;5089641;28;20169;-55
2024/04/07 08:33:52;;;;;;;1.83;1.53;;;;;;;;;;5089265;28;20226;-58
2024/04/07 08:36:18;;;;;;;2.87;1.43;;;;;;;;;;5093634;28;20163;-56
2024/04/07 08:38:44;;;;;;;3.67;2.07;;;;;;;;;;5111173;28;20210;-56
2024/04/07 08:41:11;;;;;;;6.00;1.80;;;;;;;;;;5113993;28;20244;-56
2024/04/07 08:43:40;;;;;;;9.10;2.17;;;;;;;;;;5113264;28;20177;-55
2024/04/07 08:46:11;;;;;;;4.80;1.50;;;;;;;;;;5113512;28;20193;-56
2024/04/07 08:48:46;;;;;;;2.60;1.60;;;;;;;;;;5113304;28;20199;-55
2024/04/07 08:51:12;;;;;;;5.97;1.93;;;;;;;;;;5113564;28;21036;-56
2024/04/07 08:53:42;;;;;;;5.40;1.70;;;;;;;;;;5112638;28;20215;-53
2024/04/07 08:56:09;;;;;;;3.27;1.70;;;;;;;;;;5113736;28;20167;-54
2024/04/07 08:58:40;;;;;;;3.00;2.30;;;;;;;;;;5112892;28;20613;-54
2024/04/07 09:01:08;;;;;;;5.37;1.60;;;;;;;;;;5113745;28;20632;-54
2024/04/07 09:03:34;;;;;;;3.47;2.20;;;;;;;;;;5113124;28;20164;-54
2024/04/07 09:06:00;;;;;;;4.47;1.90;;;;;;;;;;5112995;28;20680;-54
2024/04/07 09:08:26;;;;;;;2.33;1.60;;;;;;;;;;5112901;28;20752;-54
2024/04/07 09:10:53;;;;;;;5.00;1.70;;;;;;;;;;5112980;28;20180;-54
2024/04/07 09:13:19;;;;;;;2.77;1.63;;;;;;;;;;5113030;28;20260;-53
2024/04/07 09:15:45;;;;;;;3.03;1.60;;;;;;;;;;5112430;28;20277;-53
2024/04/07 09:18:12;;;;;;;2.13;1.50;;;;;;;;;;5113141;28;20676;-54
2024/04/07 09:20:38;;;;;;;6.70;1.60;;;;;;;;;;5112272;28;20221;-54
2024/04/07 09:23:04;;;;;;;3.30;1.90;;;;;;;;;;5112479;28;20224;-54
2024/04/07 09:25:31;;;;;;;2.87;1.53;;;;;;;;;;5112601;28;20227;-54
2024/04/07 09:27:57;;;;;;;3.50;1.30;;;;;;;;;;5113001;28;20178;-54
2024/04/07 09:30:24;;;;;;;1.63;1.30;;;;;;;;;;5112170;28;20203;-54
2024/04/07 09:32:50;;;;;;;1.93;1.73;;;;;;;;;;5112635;28;20272;-55
2024/04/07 09:35:16;;;;;;;2.73;1.60;;;;;;;;;;5112090;28;20162;-54
2024/04/07 09:37:43;;;;;;;4.13;1.53;;;;;;;;;;5112347;28;20183;-54
2024/04/07 09:40:09;;;;;;;1.33;0.97;;;;;;;;;;5111909;28;20161;-54
2024/04/07 09:42:38;;;;;;;1.53;1.27;;;;;;;;;;5112539;28;20173;-54
2024/04/07 09:45:05;;;;;;;4.13;1.37;;;;;;;;;;5111974;28;20624;-53
2024/04/07 09:47:34;;;;;;;3.00;1.70;;;;;;;;;;5112842;28;20163;-55
2024/04/07 09:50:18;;;;;;;2.00;1.50;;;;;;;;;;5110642;28;20162;-54
2024/04/07 09:52:48;;;;;;;1.40;1.10;;;;;;;;;;5112586;28;20229;-54
2024/04/07 09:55:16;;;;;;;3.63;1.20;;;;;;;;;;5111801;28;20170;-54
2024/04/07 09:57:42;;;;;;;2.13;1.30;;;;;;;;;;5112560;28;20544;-54
2024/04/07 10:00:10;;;;;;;1.30;1.20;;;;;;;;;;5111280;28;20166;-54
2024/04/07 10:02:37;;;;;;;5.80;1.50;;;;;;;;;;5112540;28;20556;-54
2024/04/07 10:05:05;;;;;;;4.20;1.30;;;;;;;;;;5111358;28;20233;-55
2024/04/07 10:07:32;;;;;;;1.93;1.43;;;;;;;;;;5112102;28;20166;-54
2024/04/07 10:09:58;;;;;;;1.80;1.30;;;;;;;;;;5111765;28;20156;-54
2024/04/07 10:12:28;;;;;;;2.37;1.57;;;;;;;;;;5112206;28;20520;-54
2024/04/07 10:14:54;;;;;;;2.40;1.33;;;;;;;;;;5111172;28;20173;-54
2024/04/07 10:17:20;;;;;;;1.83;0.93;;;;;;;;;;5112025;28;20602;-54
2024/04/07 10:19:47;;;;;;;2.90;1.53;;;;;;;;;;5111580;28;20171;-54
2024/04/07 10:22:17;;;;;;;3.03;1.43;;;;;;;;;;5111425;28;20168;-54
2024/04/07 10:24:47;;;;;;;3.40;1.30;;;;;;;;;;5110996;28;20854;-54
2024/04/07 10:27:13;;;;;;;2.67;1.13;;;;;;;;;;5111836;28;20504;-54
2024/04/07 10:29:40;;;;;;;1.40;1.10;;;;;;;;;;5111281;28;20640;-54
2024/04/07 10:32:33;;;;;;;2.47;1.30;;;;;;;;;;5111812;28;20297;-54
2024/04/07 10:35:05;;;;;;;4.63;1.57;;;;;;;;;;5107459;28;20211;-54
2024/04/07 10:37:32;;;;;;;3.50;2.67;;;;;;;;;;5096846;28;20709;-53
2024/04/07 10:39:58;;;;;;;2.83;1.03;;;;;;;;;;5090374;28;20642;-54
2024/04/07 10:42:24;;;;;;;2.53;1.27;;;;;;;;;;5091153;28;20219;-54
2024/04/07 10:44:50;;;;;;;2.57;1.60;;;;;;;;;;5090628;28;20158;-54
2024/04/07 10:47:17;;;;;;;2.87;1.27;;;;;;;;;;5090807;28;20171;-54
2024/04/07 10:49:43;;;;;;;2.33;1.10;;;;;;;;;;5090882;28;20177;-53
2024/04/07 10:52:13;;;;;;;2.67;1.30;;;;;;;;;;5090511;28;20165;-54
2024/04/07 10:54:40;;;;;;;2.47;1.30;;;;;;;;;;5090412;28;20669;-54
2024/04/07 10:57:06;;;;;;;2.57;1.37;;;;;;;;;;5090838;28;20163;-54
2024/04/07 10:59:32;;;;;;;1.73;1.07;;;;;;;;;;5090261;28;20682;-53
2024/04/07 11:01:58;;;;;;;2.90;1.23;;;;;;;;;;5090120;28;20339;-54
2024/04/07 11:04:24;;;;;;;2.57;1.40;;;;;;;;;;5090344;28;20199;-54
2024/04/07 11:06:50;;;;;;;2.37;1.30;;;;;;;;;;5089828;28;20168;-54
2024/04/07 11:09:16;;;;;;;2.03;1.30;;;;;;;;;;5090175;28;20170;-54
2024/04/07 11:11:45;;;;;;;1.13;1.03;;;;;;;;;;5090476;28;20351;-54
2024/04/07 11:14:11;;;;;;;1.93;1.50;;;;;;;;;;5090207;28;20567;-56
2024/04/07 11:16:37;;;;;;;2.10;1.10;;;;;;;;;;5090112;28;20160;-57
2024/04/07 11:19:04;;;;;;;2.13;1.20;;;;;;;;;;5071761;28;20195;-56
2024/04/07 11:21:30;;;;;;;2.90;1.40;;;;;;;;;;5089874;28;20202;-56
2024/04/07 11:23:57;;;;;;;3.27;1.40;;;;;;;;;;5089562;28;20306;-57
2024/04/07 11:26:23;;;;;;;1.27;1.10;;;;;;;;;;5089934;28;20677;-56
2024/04/07 11:28:50;;;;;;;1.97;1.37;;;;;;;;;;5089917;28;20549;-56
2024/04/07 11:31:18;;;;;;;1.40;1.10;;;;;;;;;;5089798;28;20170;-56
2024/04/07 11:33:45;;;;;;;1.57;1.33;;;;;;;;;;5089746;28;20276;-56
2024/04/07 11:36:11;;;;;;;2.70;1.20;;;;;;;;;;5089516;28;20258;-56
2024/04/07 11:38:38;;;;;;;1.63;1.23;;;;;;;;;;5089455;28;20233;-56
2024/04/07 11:41:04;;;;;;;1.50;1.20;;;;;;;;;;5089685;28;20288;-56
2024/04/07 11:43:30;;;;;;;1.40;1.20;;;;;;;;;;5089805;28;20168;-56
2024/04/07 11:45:56;;;;;;;1.97;1.20;;;;;;;;;;5089887;28;20213;-56
2024/04/07 11:48:23;;;;;;;1.37;1.27;;;;;;;;;;5090200;28;20164;-56
2024/04/07 11:50:49;;;;;;;3.27;1.27;;;;;;;;;;5089154;28;20229;-56
2024/04/07 11:53:15;;;;;;;3.43;1.20;;;;;;;;;;5089597;28;20298;-56
2024/04/07 11:55:41;;;;;;;2.60;1.43;;;;;;;;;;5089261;28;20159;-56
2024/04/07 11:58:07;;;;;;;2.05;1.40;;;;;;;;;;5089040;28;20400;-56
2024/04/07 12:00:33;;;;;;;1.33;1.13;;;;;;;;;;5089383;28;20465;-56
2024/04/07 12:02:59;;;;;;;2.43;1.57;;;;;;;;;;5089461;28;20264;-56
2024/04/07 12:05:25;;;;;;;3.30;1.67;;;;;;;;;;5089244;28;20160;-56
2024/04/07 12:07:51;;;;;;;3.70;1.40;;;;;;;;;;5089571;28;20164;-56
2024/04/07 12:10:17;;;;;;;2.77;1.43;;;;;;;;;;5089243;28;20610;-56
2024/04/07 12:12:43;;;;;;;2.20;1.20;;;;;;;;;;5090055;28;20207;-56
2024/04/07 12:15:10;;;;;;;2.03;1.20;;;;;;;;;;5093198;28;20288;-56
2024/04/07 12:17:36;;;;;;;1.63;1.30;;;;;;;;;;5094043;28;20249;-57
2024/04/07 12:20:02;;;;;;;1.83;1.00;;;;;;;;;;5093952;28;20168;-57
2024/04/07 12:22:51;;;;;;;1.87;1.10;;;;;;;;;;5093763;28;20977;-57
2024/04/07 12:25:17;;;;;;;4.50;1.27;;;;;;;;;;5096939;28;20213;-58
2024/04/07 12:27:44;;;;;;;2.90;1.53;;;;;;;;;;5102155;28;20192;-58
2024/04/07 12:30:10;;;;;;;1.73;1.00;;;;;;;;;;5115572;27;20163;-61
2024/04/07 12:32:36;;;;;;;1.93;1.50;;;;;;;;;;5115640;27;20170;-58
2024/04/07 12:35:02;;;;;;;4.00;1.50;;;;;;;;;;5113045;28;20172;-59
2024/04/07 12:37:28;;;;;;;1.80;1.00;;;;;;;;;;5114254;27;20782;-60
2024/04/07 12:39:54;;;;;;;4.67;1.00;;;;;;;;;;5112866;27;20646;-60
2024/04/07 12:42:20;;;;;;;2.83;1.30;;;;;;;;;;5115569;27;20641;-60
2024/04/07 12:44:46;;;;;;;5.63;1.87;;;;;;;;;;5112756;27;20221;-59
2024/04/07 12:47:17;;;;;;;2.43;1.37;;;;;;;;;;5120305;27;20213;-59
2024/04/07 12:49:43;;;;;;;4.23;1.50;;;;;;;;;;5113175;27;20704;-59
2024/04/07 12:52:09;;;;;;;3.00;1.20;;;;;;;;;;5113385;27;20570;-60
2024/04/07 12:54:35;;;;;;;1.20;1.10;;;;;;;;;;5117571;27;20192;-60
2024/04/07 12:57:01;;;;;;;3.93;1.50;;;;;;;;;;5116936;27;20206;-59
2024/04/07 12:59:27;;;;;;;2.70;1.40;;;;;;;;;;5112114;28;20170;-60
2024/04/07 13:01:53;;;;;;;3.67;1.30;;;;;;;;;;5115345;27;20181;-59
2024/04/07 13:04:19;;;;;;;2.93;2.00;;;;;;;;;;5120869;27;20188;-57
2024/04/07 13:06:45;;;;;;;4.57;1.67;;;;;;;;;;5110113;28;20183;-58
2024/04/07 13:09:11;;;;;;;3.40;1.10;;;;;;;;;;5108886;28;20211;-57
2024/04/07 13:11:37;;;;;;;2.03;0.97;;;;;;;;;;5105873;27;20208;-57
2024/04/07 13:14:04;;;;;;;2.00;1.47;;;;;;;;;;5104226;27;20918;-57
2024/04/07 13:16:30;;;;;;;3.63;1.43;;;;;;;;;;5092134;28;20178;-57
2024/04/07 13:18:56;;;;;;;4.77;1.50;;;;;;;;;;5111322;28;20650;-57
2024/04/07 13:21:22;;;;;;;2.57;1.40;;;;;;;;;;5110630;27;20669;-57
2024/04/07 13:23:48;;;;;;;2.43;1.40;;;;;;;;;;5108812;28;20726;-58
2024/04/07 13:26:14;;;;;;;2.57;1.57;;;;;;;;;;5107811;28;20185;-57
2024/04/07 13:28:41;;;;;;;3.23;1.53;;;;;;;;;;5103174;27;20182;-57
2024/04/07 13:31:07;;;;;;;2.83;1.53;;;;;;;;;;5109903;28;20782;-57
2024/04/07 13:33:33;;;;;;;3.53;1.33;;;;;;;;;;5109789;28;20227;-53
2024/04/07 13:35:59;;;;;;;4.43;1.33;;;;;;;;;;5107197;28;20175;-54
2024/04/07 13:38:28;;;;;;;2.17;1.20;;;;;;;;;;5099948;27;20620;-53
2024/04/07 13:40:55;;;;;;;2.13;1.40;;;;;;;;;;5108729;28;20219;-53
2024/04/07 13:43:21;;;;;;;2.17;1.07;;;;;;;;;;5109093;28;20171;-55
2024/04/07 13:45:47;;;;;;;2.63;1.20;;;;;;;;;;5103265;28;20549;-54
2024/04/07 13:48:13;;;;;;;2.07;1.23;;;;;;;;;;5103882;27;20180;-55
2024/04/07 13:50:39;;;;;;;2.33;1.53;;;;;;;;;;5105632;27;20563;-54
2024/04/07 13:53:06;;;;;;;2.37;1.30;;;;;;;;;;5100284;27;20192;-54
2024/04/07 13:55:32;;;;;;;2.33;1.43;;;;;;;;;;5098433;28;20550;-55
2024/04/07 13:57:58;;;;;;;2.47;1.37;;;;;;;;;;5103295;27;20558;-55
2024/04/07 14:00:24;;;;;;;1.97;1.77;;;;;;;;;;5109275;27;20171;-55
2024/04/07 14:02:50;;;;;;;3.37;1.43;;;;;;;;;;5109354;28;20183;-56
2024/04/07 14:05:17;;;;;;;1.30;1.00;;;;;;;;;;5103504;28;20174;-56
2024/04/07 14:07:44;;;;;;;3.33;1.53;;;;;;;;;;5091414;28;20236;-56
2024/04/07 14:10:10;;;;;;;3.83;1.27;;;;;;;;;;5108337;27;20175;-57
2024/04/07 14:12:36;;;;;;;1.87;1.60;;;;;;;;;;5110777;27;20673;-57
2024/04/07 14:15:02;;;;;;;1.67;1.57;;;;;;;;;;5107269;27;20171;-57
2024/04/07 14:17:28;;;;;;;1.30;1.20;;;;;;;;;;5099736;27;20603;-57
2024/04/07 14:19:54;;;;;;;1.20;1.10;;;;;;;;;;5097547;27;20184;-56
2024/04/07 14:22:20;;;;;;;2.40;1.40;;;;;;;;;;5108539;28;20254;-57
2024/04/07 14:24:46;;;;;;;4.27;1.53;;;;;;;;;;5108324;27;20229;-57
2024/04/07 14:27:12;;;;;;;2.80;1.77;;;;;;;;;;5109329;27;20198;-57
2024/04/07 14:29:38;;;;;;;1.70;1.10;;;;;;;;;;5108834;27;20191;-57
2024/04/07 14:32:05;;;;;;;2.17;1.10;;;;;;;;;;5104888;28;20195;-57
2024/04/07 14:34:34;;;;;;;2.07;1.43;;;;;;;;;;5111022;27;20211;-57
2024/04/07 14:37:01;;;;;;;3.03;1.80;;;;;;;;;;5109265;28;20159;-57
2024/04/07 14:39:27;;;;;;;1.87;1.10;;;;;;;;;;5113815;27;20179;-58
2024/04/07 14:41:53;;;;;;;1.93;1.33;;;;;;;;;;5110472;28;20266;-57